Time;durP1;ratioP1;P1;durP2;ratioP2;P2;SDS_P1;SDS_P2;PMS_P1;PMS_P2;Temp;Humidity;BMP_temperature;BMP_pressure;BME280_temperature;BME280_humidity;BME280_pressure;Samples;Min_cycle;Max_cycle;Signal;HPM_P1;HPM_P2
2023/03/14 00:01:30;;;;;;;20.38;12.90;;;3.00;99.90;;;;;;4972866;28;20027;-50
2023/03/14 00:03:55;;;;;;;20.52;13.48;;;3.10;99.90;;;;;;4973156;28;20019;-49
2023/03/14 00:06:22;;;;;;;19.73;11.00;;;3.10;99.90;;;;;;4972983;28;20039;-48
2023/03/14 00:08:48;;;;;;;20.08;12.10;;;3.10;99.90;;;;;;4972659;28;20122;-49
2023/03/14 00:11:19;;;;;;;6.65;4.82;;;3.20;99.90;;;;;;4973051;28;20658;-54
2023/03/14 00:13:49;;;;;;;7.28;4.00;;;5.00;99.90;;;;;;4972858;28;20627;-53
2023/03/14 00:16:14;;;;;;;6.03;4.10;;;6.70;99.90;;;;;;4971813;28;20022;-52
2023/03/14 00:18:40;;;;;;;3.70;2.80;;;7.70;99.90;;;;;;4972730;28;20374;-51
2023/03/14 00:21:08;;;;;;;5.43;3.03;;;8.60;99.90;;;;;;4972889;28;20066;-49
2023/03/14 00:23:36;;;;;;;5.22;3.67;;;9.30;99.90;;;;;;4972855;28;20375;-53
2023/03/14 00:26:04;;;;;;;6.88;3.53;;;9.30;99.90;;;;;;4987643;28;20030;-52
2023/03/14 00:28:30;;;;;;;7.05;3.30;;;9.20;99.90;;;;;;4972652;28;20050;-50
2023/03/14 00:30:56;;;;;;;3.50;2.67;;;9.10;99.90;;;;;;4972848;28;20027;-51
2023/03/14 00:33:22;;;;;;;3.15;2.55;;;9.10;99.90;;;;;;4972722;28;20023;-52
2023/03/14 00:35:59;;;;;;;2.50;2.30;;;9.20;99.90;;;;;;4980648;28;20034;-49
2023/03/14 00:38:25;;;;;;;3.60;2.40;;;9.30;99.90;;;;;;4991941;28;20076;-50
2023/03/14 00:40:54;;;;;;;11.73;2.13;;;9.40;99.90;;;;;;4992101;28;20030;-52
2023/03/14 00:43:23;;;;;;;3.85;2.63;;;9.50;99.90;;;;;;4992084;28;20026;-49
2023/03/14 00:45:50;;;;;;;4.00;2.15;;;9.60;99.90;;;;;;4992072;28;20041;-48
2023/03/14 00:48:17;;;;;;;4.28;2.45;;;9.80;99.90;;;;;;4992688;28;20064;-54
2023/03/14 00:50:43;;;;;;;4.95;2.58;;;9.80;99.90;;;;;;4992033;28;20030;-51
2023/03/14 00:53:08;;;;;;;3.58;2.53;;;9.70;99.90;;;;;;4992554;28;20374;-52
2023/03/14 00:55:39;;;;;;;4.25;2.90;;;9.90;99.90;;;;;;4991810;28;20019;-50
2023/03/14 00:58:05;;;;;;;3.42;2.72;;;10.10;99.90;;;;;;4991774;28;20030;-51
2023/03/14 01:00:31;;;;;;;4.32;2.97;;;9.90;99.90;;;;;;4991468;28;20425;-50
2023/03/14 01:02:56;;;;;;;6.00;3.00;;;9.90;99.90;;;;;;4991941;28;20370;-52
2023/03/14 01:05:22;;;;;;;7.60;3.15;;;9.90;99.90;;;;;;4991443;28;20041;-47
2023/03/14 01:07:48;;;;;;;5.80;2.90;;;10.10;99.90;;;;;;4990783;28;20077;-49
2023/03/14 01:10:14;;;;;;;6.90;3.28;;;10.00;99.90;;;;;;4990836;28;20363;-48
2023/03/14 01:12:40;;;;;;;5.57;2.97;;;10.00;99.90;;;;;;4990873;28;20022;-50
2023/03/14 01:15:06;;;;;;;3.55;2.28;;;10.00;99.90;;;;;;4991861;28;20113;-48
2023/03/14 01:17:32;;;;;;;4.20;2.47;;;10.00;99.90;;;;;;4991604;28;20606;-51
2023/03/14 01:19:58;;;;;;;5.22;2.50;;;10.00;99.90;;;;;;4991842;28;20114;-49
2023/03/14 01:22:24;;;;;;;3.05;2.58;;;9.90;99.90;;;;;;4994875;28;20030;-53
2023/03/14 01:24:50;;;;;;;3.58;2.63;;;9.80;99.90;;;;;;4995317;28;20125;-52
2023/03/14 01:27:15;;;;;;;3.38;2.50;;;9.70;99.90;;;;;;4995088;28;20050;-53
2023/03/14 01:29:42;;;;;;;7.57;3.47;;;9.60;99.90;;;;;;4994995;28;20050;-52
2023/03/14 01:32:08;;;;;;;4.88;2.97;;;9.40;99.90;;;;;;4995151;28;20492;-51
2023/03/14 01:34:33;;;;;;;2.85;2.53;;;9.30;99.90;;;;;;4994938;28;20109;-50
2023/03/14 01:36:59;;;;;;;8.48;2.78;;;9.20;99.90;;;;;;4994914;28;20034;-50
2023/03/14 01:39:25;;;;;;;6.82;2.47;;;9.20;99.90;;;;;;4995154;28;20072;-50
2023/03/14 01:41:50;;;;;;;4.85;2.75;;;9.10;99.90;;;;;;4994949;28;20037;-48
2023/03/14 01:44:16;;;;;;;3.65;3.10;;;9.10;99.90;;;;;;4994880;28;20105;-51
2023/03/14 01:46:46;;;;;;;4.10;2.55;;;9.20;99.90;;;;;;4993601;28;20026;-51
2023/03/14 01:49:20;;;;;;;3.65;2.83;;;9.20;99.90;;;;;;4994726;28;20022;-52
2023/03/14 01:52:13;;;;;;;3.35;3.05;;;9.30;99.90;;;;;;4994702;28;20022;-50
2023/03/14 01:54:43;;;;;;;3.67;2.72;;;9.10;99.90;;;;;;4994854;28;20031;-50
2023/03/14 01:57:18;;;;;;;5.28;2.97;;;9.00;99.90;;;;;;4994707;28;20033;-52
2023/03/14 02:00:11;;;;;;;4.82;2.72;;;9.00;99.90;;;;;;4994406;28;20453;-50
2023/03/14 02:02:39;;;;;;;5.13;2.72;;;8.90;99.90;;;;;;4994365;28;20037;-46
2023/03/14 02:05:05;;;;;;;3.85;2.58;;;8.90;99.90;;;;;;4994600;28;20070;-53
2023/03/14 02:07:43;;;;;;;7.20;2.97;;;8.80;99.90;;;;;;4994295;28;20029;-49
2023/03/14 02:10:09;;;;;;;2.70;2.50;;;8.70;99.90;;;;;;4994485;28;20022;-49
2023/03/14 02:12:36;;;;;;;5.97;3.20;;;8.70;99.90;;;;;;4994425;28;20453;-53
2023/03/14 02:15:02;;;;;;;6.72;2.60;;;8.70;99.90;;;;;;4994403;28;20477;-53
2023/03/14 02:17:28;;;;;;;3.25;2.17;;;8.80;99.90;;;;;;4994432;28;20421;-55
2023/03/14 02:20:05;;;;;;;2.88;2.55;;;8.70;99.90;;;;;;4992903;28;20089;-51
2023/03/14 02:22:31;;;;;;;3.53;2.58;;;8.70;99.90;;;;;;4993863;28;20564;-49
2023/03/14 02:25:05;;;;;;;5.78;2.70;;;8.60;99.90;;;;;;4994173;28;20474;-48
2023/03/14 02:27:32;;;;;;;3.03;2.55;;;8.60;99.90;;;;;;4993931;28;20043;-54
2023/03/14 02:30:00;;;;;;;3.10;2.60;;;8.60;99.90;;;;;;4994169;28;20022;-51
2023/03/14 02:32:29;;;;;;;3.35;2.65;;;8.70;99.90;;;;;;4993925;28;20031;-53
2023/03/14 02:34:58;;;;;;;2.88;2.60;;;8.60;99.90;;;;;;4993941;28;20109;-53
2023/03/14 02:37:32;;;;;;;4.70;3.10;;;8.60;99.90;;;;;;4992649;28;20022;-53
2023/03/14 02:39:58;;;;;;;3.05;2.75;;;8.50;99.90;;;;;;4993925;28;20601;-50
2023/03/14 02:42:24;;;;;;;3.75;2.92;;;8.50;99.90;;;;;;4993845;28;20034;-55
2023/03/14 02:44:59;;;;;;;3.38;3.05;;;8.40;99.90;;;;;;4993628;28;20428;-52
2023/03/14 02:47:29;;;;;;;5.35;2.85;;;8.30;99.90;;;;;;4992339;28;20042;-56
2023/03/14 02:50:06;;;;;;;2.97;2.30;;;8.20;99.90;;;;;;4993699;28;20027;-52
2023/03/14 02:52:31;;;;;;;4.97;2.50;;;8.00;99.90;;;;;;4993586;28;20026;-49
2023/03/14 02:54:57;;;;;;;4.15;2.92;;;7.90;99.90;;;;;;4993553;28;20034;-54
2023/03/14 02:57:23;;;;;;;6.47;3.05;;;7.70;99.90;;;;;;4993738;28;20037;-53
2023/03/14 02:59:49;;;;;;;4.35;3.17;;;7.80;99.90;;;;;;4993286;28;20030;-51
2023/03/14 03:02:14;;;;;;;7.13;3.47;;;7.80;99.90;;;;;;4993216;28;20026;-50
2023/03/14 03:04:40;;;;;;;4.65;3.45;;;7.90;99.90;;;;;;4992106;28;20023;-51
2023/03/14 03:07:06;;;;;;;4.72;3.28;;;7.90;99.90;;;;;;4993262;28;20069;-51
2023/03/14 03:09:31;;;;;;;3.20;2.85;;;7.90;99.90;;;;;;4992036;28;20109;-50
2023/03/14 03:11:57;;;;;;;3.65;2.80;;;7.90;99.90;;;;;;4993341;28;20037;-53
2023/03/14 03:14:23;;;;;;;7.38;3.00;;;7.70;99.90;;;;;;4993216;28;20034;-54
2023/03/14 03:16:48;;;;;;;3.85;3.15;;;7.60;99.90;;;;;;4992967;28;20053;-50
2023/03/14 03:19:15;;;;;;;5.05;3.15;;;7.50;99.90;;;;;;4993081;28;20022;-52
2023/03/14 03:21:41;;;;;;;4.20;2.95;;;7.50;99.90;;;;;;4992963;28;20034;-51
2023/03/14 03:24:07;;;;;;;3.30;3.00;;;7.50;99.90;;;;;;4993168;28;20022;-51
2023/03/14 03:26:34;;;;;;;11.43;3.53;;;7.50;99.90;;;;;;4993360;28;20046;-53
2023/03/14 03:29:03;;;;;;;3.95;3.00;;;7.50;99.90;;;;;;4992898;28;20014;-55
2023/03/14 03:31:28;;;;;;;4.38;3.05;;;7.50;99.90;;;;;;4992784;28;20026;-51
2023/03/14 03:33:54;;;;;;;3.50;3.20;;;7.60;99.90;;;;;;4992844;28;20026;-50
2023/03/14 03:36:25;;;;;;;4.88;3.00;;;7.60;99.90;;;;;;4992930;28;20030;-51
2023/03/14 03:38:51;;;;;;;6.78;3.80;;;7.70;99.90;;;;;;4992844;28;20030;-56
2023/03/14 03:41:17;;;;;;;6.82;3.20;;;7.70;99.90;;;;;;4992712;28;20054;-51
2023/03/14 03:43:42;;;;;;;4.22;3.00;;;7.60;99.90;;;;;;4992203;28;20041;-51
2023/03/14 03:46:08;;;;;;;5.95;3.22;;;7.70;99.90;;;;;;4992589;28;20045;-50
2023/03/14 03:48:35;;;;;;;16.70;10.52;;;7.70;99.90;;;;;;4992619;28;20062;-53
2023/03/14 03:51:00;;;;;;;3.75;3.30;;;7.80;99.90;;;;;;4991309;28;20038;-55
2023/03/14 03:53:26;;;;;;;9.02;6.65;;;8.00;99.90;;;;;;4992716;28;20034;-53
2023/03/14 03:55:52;;;;;;;12.32;6.82;;;8.10;99.90;;;;;;4992534;28;20038;-52
2023/03/14 03:58:18;;;;;;;2.10;1.90;;;8.20;99.90;;;;;;4992460;28;20501;-51
2023/03/14 04:00:43;;;;;;;1.75;1.65;;;8.70;99.90;;;;;;4992081;28;20604;-51
2023/03/14 04:03:09;;;;;;;1.70;1.60;;;9.20;99.90;;;;;;4992526;28;20101;-52
2023/03/14 04:05:35;;;;;;;1.50;1.40;;;9.60;99.90;;;;;;4992337;28;20138;-50
2023/03/14 04:08:01;;;;;;;1.60;1.50;;;9.70;99.90;;;;;;4992363;28;20029;-49
2023/03/14 04:10:27;;;;;;;4.78;1.25;;;9.80;99.90;;;;;;4992492;28;20015;-48
2023/03/14 04:12:52;;;;;;;1.30;1.20;;;9.80;99.90;;;;;;4992265;28;20027;-53
2023/03/14 04:15:18;;;;;;;1.20;1.20;;;9.80;99.90;;;;;;4992273;28;20714;-49
2023/03/14 04:17:44;;;;;;;4.30;1.92;;;9.80;99.90;;;;;;4990853;28;20030;-49
2023/03/14 04:20:13;;;;;;;1.77;1.55;;;9.70;99.90;;;;;;4992300;28;20038;-52
2023/03/14 04:22:39;;;;;;;6.05;2.30;;;9.70;99.90;;;;;;4992115;28;20113;-49
2023/03/14 04:25:06;;;;;;;7.25;4.63;;;9.60;99.90;;;;;;4992276;28;20038;-53
2023/03/14 04:27:32;;;;;;;25.23;12.52;;;9.60;99.90;;;;;;4991924;28;20121;-48
2023/03/14 04:29:57;;;;;;;8.27;5.10;;;9.50;99.90;;;;;;4992137;28;20118;-53
2023/03/14 04:32:23;;;;;;;1.40;1.30;;;9.40;99.90;;;;;;4992272;28;20038;-55
2023/03/14 04:34:49;;;;;;;17.02;11.68;;;9.40;99.90;;;;;;4992137;28;20035;-51
2023/03/14 04:37:14;;;;;;;1.55;1.45;;;9.40;99.90;;;;;;4992163;28;20076;-52
2023/03/14 04:39:40;;;;;;;1.50;1.40;;;9.40;99.90;;;;;;4992207;28;20114;-49
2023/03/14 04:42:06;;;;;;;1.48;1.38;;;9.40;99.90;;;;;;4992000;28;20069;-51
2023/03/14 04:44:31;;;;;;;1.40;1.30;;;9.30;99.90;;;;;;4991934;28;20018;-56
2023/03/14 04:46:57;;;;;;;1.33;1.33;;;9.20;99.90;;;;;;4992073;28;20021;-53
2023/03/14 04:49:23;;;;;;;1.45;1.35;;;9.20;99.90;;;;;;4991858;28;20681;-52
2023/03/14 04:51:50;;;;;;;1.77;1.48;;;9.10;99.90;;;;;;4991874;28;20031;-52
2023/03/14 04:54:17;;;;;;;1.50;1.40;;;9.20;99.90;;;;;;4992015;28;20031;-50
2023/03/14 04:56:42;;;;;;;1.90;1.80;;;9.10;99.90;;;;;;4994272;28;20070;-51
2023/03/14 04:59:08;;;;;;;5.22;3.50;;;9.10;99.90;;;;;;4994358;28;20386;-54
2023/03/14 05:01:34;;;;;;;3.95;1.48;;;9.00;99.90;;;;;;4995544;28;20025;-49
2023/03/14 05:04:00;;;;;;;1.15;1.15;;;8.90;99.90;;;;;;4995674;28;20109;-56
2023/03/14 05:06:25;;;;;;;1.83;1.67;;;8.90;99.90;;;;;;4995630;28;20034;-54
2023/03/14 05:08:51;;;;;;;1.90;1.70;;;8.90;99.90;;;;;;4995669;28;20022;-52
2023/03/14 05:11:18;;;;;;;1.88;1.77;;;8.90;99.90;;;;;;4995531;28;20030;-50
2023/03/14 05:13:43;;;;;;;2.55;2.35;;;8.80;99.90;;;;;;4995393;28;20073;-51
2023/03/14 05:16:10;;;;;;;3.03;1.98;;;8.80;99.90;;;;;;4995428;28;20046;-50
2023/03/14 05:18:37;;;;;;;2.28;2.08;;;8.70;99.90;;;;;;4995184;28;20022;-52
2023/03/14 05:21:03;;;;;;;2.05;1.95;;;8.70;99.90;;;;;;4995401;28;20037;-50
2023/03/14 05:23:30;;;;;;;2.13;1.98;;;8.60;99.90;;;;;;4995207;28;20089;-53
2023/03/14 05:25:55;;;;;;;3.20;2.70;;;8.70;99.90;;;;;;4995079;28;20101;-53
2023/03/14 05:28:21;;;;;;;3.15;2.40;;;8.60;99.90;;;;;;4995122;28;20569;-52
2023/03/14 05:30:48;;;;;;;3.55;2.22;;;8.60;99.90;;;;;;4995234;28;20065;-53
2023/03/14 05:33:14;;;;;;;2.95;2.75;;;8.60;99.90;;;;;;4995135;28;20029;-51
2023/03/14 05:35:39;;;;;;;2.15;2.05;;;8.50;99.90;;;;;;4994897;28;20369;-51
2023/03/14 05:38:05;;;;;;;2.80;2.50;;;8.50;99.90;;;;;;4995179;28;20018;-52
2023/03/14 05:40:30;;;;;;;3.80;2.97;;;8.50;99.90;;;;;;4994790;28;20405;-56
2023/03/14 05:42:56;;;;;;;4.25;2.70;;;8.50;99.90;;;;;;4990273;28;20106;-56
2023/03/14 05:45:22;;;;;;;2.50;2.22;;;8.40;99.90;;;;;;4994511;28;20026;-50
2023/03/14 05:47:47;;;;;;;2.20;1.95;;;8.40;99.90;;;;;;4994429;28;20093;-52
2023/03/14 05:50:13;;;;;;;2.17;2.05;;;8.40;99.90;;;;;;4994723;28;20026;-48
2023/03/14 05:52:38;;;;;;;2.28;2.10;;;8.40;99.90;;;;;;4993730;28;20149;-51
2023/03/14 05:55:05;;;;;;;2.90;2.03;;;8.40;99.90;;;;;;4993459;28;20077;-52
2023/03/14 05:57:30;;;;;;;19.98;9.57;;;8.50;99.90;;;;;;4994684;28;20022;-54
2023/03/14 05:59:56;;;;;;;7.80;2.85;;;8.40;99.90;;;;;;4994247;28;20559;-55
2023/03/14 06:02:22;;;;;;;2.88;1.70;;;8.40;99.90;;;;;;4994868;28;20117;-53
2023/03/14 06:04:48;;;;;;;64.82;22.70;;;8.50;99.90;;;;;;4992092;28;20035;-52
2023/03/14 06:07:13;;;;;;;5.18;2.28;;;8.40;99.90;;;;;;4993546;28;20022;-55
2023/03/14 06:09:39;;;;;;;1.88;1.70;;;8.50;99.90;;;;;;4993691;28;20350;-52
2023/03/14 06:12:05;;;;;;;22.33;9.45;;;8.60;99.90;;;;;;4994409;28;20521;-51
2023/03/14 06:14:31;;;;;;;6.13;2.60;;;8.50;99.90;;;;;;4994226;28;20060;-51
2023/03/14 06:16:58;;;;;;;8.45;5.57;;;8.50;99.90;;;;;;4994449;28;20054;-51
2023/03/14 06:19:25;;;;;;;11.77;10.63;;;8.50;99.90;;;;;;4994414;28;20050;-49
2023/03/14 06:21:50;;;;;;;11.95;10.88;;;8.50;99.90;;;;;;4993674;28;20122;-52
2023/03/14 06:24:16;;;;;;;3.30;2.88;;;8.50;99.90;;;;;;4993825;28;20109;-52
2023/03/14 06:26:42;;;;;;;7.15;6.50;;;8.50;99.90;;;;;;4993395;28;20047;-52
2023/03/14 06:29:08;;;;;;;10.52;7.53;;;8.50;99.90;;;;;;4992532;28;20022;-54
2023/03/14 06:31:35;;;;;;;6.07;5.43;;;8.40;99.90;;;;;;4993703;28;20501;-53
2023/03/14 06:34:01;;;;;;;3.00;2.55;;;8.40;99.90;;;;;;4994471;28;20497;-54
2023/03/14 06:36:26;;;;;;;1.77;1.58;;;8.40;99.90;;;;;;4994158;28;20125;-56
2023/03/14 06:38:52;;;;;;;3.10;1.95;;;8.40;99.90;;;;;;4993631;28;20684;-50
2023/03/14 06:41:18;;;;;;;3.17;1.75;;;8.40;99.90;;;;;;4993882;28;20034;-55
2023/03/14 06:43:43;;;;;;;3.17;1.80;;;8.50;99.90;;;;;;4993500;28;20472;-50
2023/03/14 06:46:09;;;;;;;3.35;1.80;;;8.50;99.90;;;;;;4993583;28;20030;-53
2023/03/14 06:48:35;;;;;;;5.07;2.17;;;8.50;99.90;;;;;;4993521;28;20019;-52
2023/03/14 06:51:00;;;;;;;1.80;1.70;;;8.50;99.90;;;;;;4993466;28;20034;-55
2023/03/14 06:53:26;;;;;;;2.17;1.90;;;8.40;99.90;;;;;;4993387;28;20026;-49
2023/03/14 06:55:52;;;;;;;2.28;2.08;;;8.40;99.90;;;;;;4993529;28;20022;-51
2023/03/14 06:58:17;;;;;;;1.98;1.88;;;8.40;99.90;;;;;;4993368;28;20022;-53
2023/03/14 07:00:43;;;;;;;2.45;2.10;;;8.50;99.90;;;;;;4993164;28;20049;-53
2023/03/14 07:03:10;;;;;;;4.72;2.63;;;8.40;99.90;;;;;;4993268;28;20458;-50
2023/03/14 07:05:36;;;;;;;2.67;2.28;;;8.40;99.90;;;;;;4993029;28;20050;-52
2023/03/14 07:08:02;;;;;;;2.30;2.10;;;8.50;99.90;;;;;;4993070;28;20023;-51
2023/03/14 07:10:27;;;;;;;1.70;1.60;;;8.50;99.90;;;;;;4993244;28;20019;-52
2023/03/14 07:12:53;;;;;;;1.92;1.83;;;8.50;99.90;;;;;;4993163;28;20037;-54
2023/03/14 07:15:19;;;;;;;3.25;1.52;;;8.50;99.90;;;;;;4993054;28;20018;-53
2023/03/14 07:17:47;;;;;;;3.08;1.75;;;8.60;99.90;;;;;;4992806;28;20026;-51
2023/03/14 07:20:13;;;;;;;2.00;1.90;;;8.60;99.90;;;;;;4992874;28;20072;-51
2023/03/14 07:22:39;;;;;;;4.10;1.77;;;8.60;99.90;;;;;;4991344;28;20498;-53
2023/03/14 07:25:05;;;;;;;2.13;1.95;;;8.60;99.90;;;;;;4993018;28;20038;-53
2023/03/14 07:27:31;;;;;;;1.83;1.73;;;8.50;99.90;;;;;;4992576;28;20046;-53
2023/03/14 07:29:56;;;;;;;1.55;1.48;;;8.50;99.90;;;;;;4992846;28;20031;-50
2023/03/14 07:32:22;;;;;;;3.05;1.55;;;8.50;99.90;;;;;;4992880;28;20520;-52
2023/03/14 07:34:48;;;;;;;1.75;1.65;;;8.50;99.90;;;;;;4992412;28;20038;-50
2023/03/14 07:37:14;;;;;;;2.67;2.00;;;8.50;99.90;;;;;;4992340;28;20141;-51
2023/03/14 07:39:39;;;;;;;2.42;2.10;;;8.50;99.90;;;;;;4992253;28;20033;-52
2023/03/14 07:42:05;;;;;;;1.92;1.83;;;8.40;99.90;;;;;;4990629;28;20454;-50
2023/03/14 07:44:31;;;;;;;4.63;4.22;;;8.40;99.90;;;;;;4991000;28;20034;-50
2023/03/14 07:46:57;;;;;;;2.78;2.58;;;8.40;99.90;;;;;;4990817;28;20026;-53
2023/03/14 07:49:22;;;;;;;1.80;1.70;;;8.40;99.90;;;;;;4991736;28;20021;-50
2023/03/14 07:51:49;;;;;;;1.90;1.73;;;8.40;99.90;;;;;;4991493;28;20030;-53
2023/03/14 07:54:14;;;;;;;4.30;2.72;;;8.30;99.90;;;;;;4991965;28;20114;-55
2023/03/14 07:56:40;;;;;;;5.45;2.58;;;8.30;99.90;;;;;;4992397;28;20513;-52
2023/03/14 07:59:06;;;;;;;3.22;1.85;;;8.30;99.90;;;;;;4991111;28;20117;-55
2023/03/14 08:01:32;;;;;;;5.13;1.50;;;8.30;99.90;;;;;;4992243;28;20050;-52
2023/03/14 08:03:58;;;;;;;3.85;1.92;;;8.30;99.90;;;;;;4992405;28;20108;-54
2023/03/14 08:06:24;;;;;;;2.22;1.90;;;8.20;99.90;;;;;;4990861;28;20533;-54
2023/03/14 08:08:50;;;;;;;4.72;2.60;;;8.20;99.90;;;;;;4992244;28;20109;-55
2023/03/14 08:11:15;;;;;;;3.30;2.85;;;8.20;99.90;;;;;;4992496;28;20154;-54
2023/03/14 08:13:41;;;;;;;1.33;1.30;;;8.20;99.90;;;;;;4992129;28;20034;-51
2023/03/14 08:16:07;;;;;;;1.58;1.48;;;8.20;99.90;;;;;;4992132;28;20030;-52
2023/03/14 08:18:33;;;;;;;3.50;1.98;;;8.30;99.90;;;;;;4992021;28;20037;-52
2023/03/14 08:20:58;;;;;;;4.15;3.67;;;8.30;99.90;;;;;;4992033;28;20525;-54
2023/03/14 08:23:24;;;;;;;5.97;4.30;;;8.20;99.90;;;;;;4990932;28;20394;-50
2023/03/14 08:25:51;;;;;;;3.05;2.60;;;8.20;99.90;;;;;;4992007;28;20120;-52
2023/03/14 08:28:17;;;;;;;2.97;2.78;;;8.20;99.90;;;;;;4992015;28;20390;-55
2023/03/14 08:30:43;;;;;;;2.63;1.63;;;8.10;99.90;;;;;;4993246;28;20025;-53
2023/03/14 08:33:09;;;;;;;3.17;2.00;;;8.10;99.90;;;;;;4996217;28;20030;-54
2023/03/14 08:35:34;;;;;;;2.35;1.60;;;8.10;99.90;;;;;;4995824;28;20061;-49
2023/03/14 08:38:01;;;;;;;2.60;1.48;;;8.10;99.90;;;;;;4995878;28;20089;-54
2023/03/14 08:40:26;;;;;;;1.65;1.55;;;8.10;99.90;;;;;;4995980;28;20022;-56
2023/03/14 08:42:52;;;;;;;3.60;3.30;;;8.10;99.90;;;;;;4994450;28;20088;-50
2023/03/14 08:45:18;;;;;;;1.65;1.40;;;8.10;99.90;;;;;;4995947;28;20061;-55
2023/03/14 08:47:44;;;;;;;4.47;1.50;;;8.10;99.90;;;;;;4995781;28;20049;-52
2023/03/14 08:50:12;;;;;;;2.92;2.13;;;8.10;99.90;;;;;;4995715;28;20030;-52
2023/03/14 08:52:44;;;;;;;4.45;1.73;;;8.10;99.90;;;;;;4995548;28;20635;-52
2023/03/14 08:55:09;;;;;;;4.03;1.48;;;8.10;99.90;;;;;;4995732;28;20041;-54
2023/03/14 08:57:36;;;;;;;3.30;1.90;;;8.20;99.90;;;;;;4995521;28;20026;-54
2023/03/14 09:00:05;;;;;;;3.50;3.10;;;8.10;99.90;;;;;;4994374;28;20035;-52
2023/03/14 09:02:31;;;;;;;4.03;3.47;;;8.20;99.90;;;;;;4995443;28;20030;-51
2023/03/14 09:04:57;;;;;;;5.60;3.38;;;8.20;99.90;;;;;;4995360;28;20038;-54
2023/03/14 09:07:22;;;;;;;5.13;3.90;;;8.20;99.90;;;;;;4995660;28;20018;-54
2023/03/14 09:09:48;;;;;;;4.70;3.58;;;8.20;99.90;;;;;;4995430;28;20030;-54
2023/03/14 09:12:14;;;;;;;4.75;4.03;;;8.10;99.90;;;;;;4994116;28;20030;-54
2023/03/14 09:14:39;;;;;;;7.07;2.50;;;8.10;99.90;;;;;;4994971;28;20445;-53
2023/03/14 09:17:05;;;;;;;7.68;4.95;;;8.00;99.90;;;;;;4995256;28;20026;-51
2023/03/14 09:19:31;;;;;;;2.92;2.60;;;8.00;99.90;;;;;;4995160;28;20037;-50
2023/03/14 09:21:57;;;;;;;3.00;2.50;;;8.00;99.90;;;;;;4995213;28;20424;-50
2023/03/14 09:24:22;;;;;;;3.25;2.65;;;8.10;99.90;;;;;;4995553;28;20034;-52
2023/03/14 09:26:48;;;;;;;4.25;3.13;;;8.20;99.90;;;;;;4994985;28;20046;-52
2023/03/14 09:29:14;;;;;;;3.33;2.28;;;8.20;99.90;;;;;;4995143;28;20033;-55
2023/03/14 09:31:39;;;;;;;3.05;2.20;;;8.20;99.90;;;;;;4994807;28;20360;-51
2023/03/14 09:34:05;;;;;;;2.28;2.03;;;8.20;99.90;;;;;;4994844;28;20093;-54
2023/03/14 09:36:31;;;;;;;2.05;1.60;;;8.20;99.90;;;;;;4994874;28;20362;-52
2023/03/14 09:38:56;;;;;;;1.48;1.30;;;8.20;99.90;;;;;;4994936;28;20037;-53
2023/03/14 09:41:30;;;;;;;2.92;1.40;;;8.20;99.90;;;;;;4994156;28;20037;-52
2023/03/14 09:44:24;;;;;;;1.73;1.63;;;8.10;99.90;;;;;;4995018;28;20022;-49
2023/03/14 09:46:53;;;;;;;3.30;3.00;;;8.10;99.90;;;;;;4993483;28;20057;-55
2023/03/14 09:49:24;;;;;;;4.57;1.70;;;8.00;99.90;;;;;;4994621;28;20425;-55
2023/03/14 09:51:54;;;;;;;1.85;1.58;;;7.90;99.90;;;;;;4994347;28;20034;-51
2023/03/14 09:54:44;;;;;;;2.83;1.50;;;8.00;99.90;;;;;;4994700;28;20027;-54
2023/03/14 09:57:16;;;;;;;2.42;1.60;;;8.00;99.90;;;;;;4994642;28;20076;-51
2023/03/14 09:59:44;;;;;;;2.40;1.35;;;7.90;99.90;;;;;;4994398;28;20028;-49
2023/03/14 10:02:15;;;;;;;1.55;1.45;;;7.90;99.90;;;;;;4994374;28;20033;-55
2023/03/14 10:04:44;;;;;;;2.80;1.50;;;7.90;99.90;;;;;;4994220;28;20037;-53
2023/03/14 10:07:25;;;;;;;1.33;1.23;;;7.80;99.90;;;;;;4994555;28;20026;-52
2023/03/14 10:09:51;;;;;;;4.05;1.40;;;7.70;99.90;;;;;;4992858;28;20027;-52
2023/03/14 10:12:18;;;;;;;3.70;1.73;;;7.70;99.90;;;;;;4994333;28;20034;-54
2023/03/14 10:14:53;;;;;;;2.67;1.50;;;7.70;99.90;;;;;;4994342;28;20026;-52
2023/03/14 10:17:20;;;;;;;2.45;1.40;;;7.70;99.90;;;;;;4994208;28;20492;-53
2023/03/14 10:19:57;;;;;;;1.20;1.20;;;7.70;99.90;;;;;;4994098;28;20030;-54
2023/03/14 10:22:28;;;;;;;1.80;1.70;;;7.70;99.90;;;;;;4994130;28;20474;-49
2023/03/14 10:25:01;;;;;;;5.88;1.80;;;7.80;99.90;;;;;;4993992;28;20030;-51
2023/03/14 10:27:30;;;;;;;3.17;1.60;;;7.80;99.90;;;;;;4994011;28;20046;-52
2023/03/14 10:30:04;;;;;;;1.50;1.40;;;7.80;99.90;;;;;;4993998;28;20125;-52
2023/03/14 10:32:38;;;;;;;1.63;1.52;;;7.80;99.90;;;;;;4993714;28;20445;-51
2023/03/14 10:35:11;;;;;;;;;;;7.80;99.90;;;;;;4994475;28;20027;-50
2023/03/14 10:37:49;;;;;;;2.72;1.35;;;7.80;99.90;;;;;;4993750;28;19966;-52
2023/03/14 10:40:17;;;;;;;1.52;1.42;;;7.90;99.90;;;;;;4993922;28;20444;-51
2023/03/14 10:42:46;;;;;;;2.47;1.73;;;7.80;99.90;;;;;;4993445;28;20041;-54
2023/03/14 10:45:33;;;;;;;3.28;2.65;;;7.70;99.90;;;;;;4993644;28;20394;-52
2023/03/14 10:48:14;;;;;;;2.22;2.03;;;7.70;99.90;;;;;;4993705;28;20570;-52
2023/03/14 10:50:55;;;;;;;4.18;2.83;;;7.60;99.90;;;;;;4993463;28;20105;-54
2023/03/14 10:53:21;;;;;;;3.00;2.55;;;7.50;99.90;;;;;;4992530;28;20106;-48
2023/03/14 10:55:47;;;;;;;1.77;1.67;;;7.50;99.90;;;;;;4993331;28;20045;-52
2023/03/14 10:58:24;;;;;;;1.30;1.30;;;7.40;99.90;;;;;;4993393;28;20034;-52
2023/03/14 11:01:04;;;;;;;2.25;1.77;;;7.40;99.90;;;;;;4993235;28;20441;-49
2023/03/14 11:03:33;;;;;;;3.13;2.00;;;7.30;99.90;;;;;;4993182;28;20062;-50
2023/03/14 11:06:25;;;;;;;1.60;1.50;;;7.20;99.90;;;;;;4993408;28;20018;-54
2023/03/14 11:09:02;;;;;;;2.42;1.90;;;7.10;99.90;;;;;;4993157;28;20041;-52
2023/03/14 11:11:30;;;;;;;1.65;1.55;;;7.00;99.90;;;;;;4993188;28;20080;-54
2023/03/14 11:14:04;;;;;;;2.30;2.00;;;7.00;99.90;;;;;;4993322;28;20023;-51
2023/03/14 11:16:48;;;;;;;1.92;1.83;;;6.90;99.90;;;;;;4993283;28;20363;-56
2023/03/14 11:19:50;;;;;;;1.55;1.45;;;6.90;99.90;;;;;;4993131;28;20030;-52
2023/03/14 11:22:43;;;;;;;2.08;1.60;;;6.90;99.90;;;;;;4992941;28;20054;-55
2023/03/14 11:25:25;;;;;;;2.10;1.95;;;7.00;99.90;;;;;;4993136;28;20077;-55
2023/03/14 11:28:08;;;;;;;2.63;2.13;;;7.00;99.90;;;;;;4992856;28;20045;-54
2023/03/14 11:30:34;;;;;;;2.15;1.98;;;7.00;99.90;;;;;;4992736;28;20021;-55
2023/03/14 11:33:16;;;;;;;1.70;1.60;;;7.00;99.90;;;;;;4993115;28;20601;-51
2023/03/14 11:35:58;;;;;;;1.90;1.80;;;7.00;99.90;;;;;;4993011;28;20113;-49
2023/03/14 11:38:24;;;;;;;2.30;1.85;;;6.90;99.90;;;;;;4991566;28;20121;-54
2023/03/14 11:40:51;;;;;;;1.90;1.80;;;6.90;99.90;;;;;;4992648;28;20117;-54
2023/03/14 11:43:34;;;;;;;2.63;2.30;;;6.80;99.90;;;;;;4992652;28;20036;-56
2023/03/14 11:46:29;;;;;;;2.40;1.70;;;6.80;99.90;;;;;;4992904;28;20497;-54
2023/03/14 11:49:30;;;;;;;3.25;1.67;;;6.80;99.90;;;;;;4989995;28;20117;-54
2023/03/14 11:52:01;;;;;;;8.07;1.70;;;6.80;99.90;;;;;;4992718;28;20033;-51
2023/03/14 11:54:50;;;;;;;2.08;1.80;;;6.70;99.90;;;;;;4993020;28;20026;-55
2023/03/14 11:57:18;;;;;;;1.80;1.70;;;6.70;99.90;;;;;;4992568;28;20061;-56
2023/03/14 12:00:20;;;;;;;1.30;1.25;;;6.70;99.90;;;;;;4992256;28;20053;-52
2023/03/14 12:02:57;;;;;;;2.03;1.88;;;6.70;99.90;;;;;;4992457;28;20035;-55
2023/03/14 12:05:25;;;;;;;2.05;1.48;;;6.80;99.90;;;;;;4992192;28;20492;-57
2023/03/14 12:08:09;;;;;;;1.75;1.58;;;6.90;99.90;;;;;;4992056;28;20065;-52
2023/03/14 12:10:47;;;;;;;;;;;7.10;99.90;;;;;;4992770;28;20028;-52
2023/03/14 12:13:14;;;;;;;1.50;1.50;;;7.20;99.90;;;;;;4992082;28;19905;-54
2023/03/14 12:15:47;;;;;;;1.70;1.60;;;7.40;99.90;;;;;;4992203;28;20026;-54
2023/03/14 12:18:41;;;;;;;3.80;2.20;;;7.40;99.90;;;;;;4990675;28;20026;-55
2023/03/14 12:21:10;;;;;;;2.35;1.85;;;7.40;99.90;;;;;;4990776;28;20277;-55
2023/03/14 12:23:58;;;;;;;1.58;1.48;;;7.40;99.90;;;;;;4992492;28;20018;-52
2023/03/14 12:26:26;;;;;;;1.50;1.40;;;7.40;99.90;;;;;;4992013;28;20122;-50
2023/03/14 12:28:58;;;;;;;6.68;1.80;;;7.50;99.90;;;;;;4991990;28;20030;-55
2023/03/14 12:31:30;;;;;;;1.40;1.30;;;7.40;99.90;;;;;;4992185;28;20109;-54
2023/03/14 12:34:03;;;;;;;3.95;1.38;;;7.50;99.90;;;;;;4992560;28;20034;-51
2023/03/14 12:36:54;;;;;;;1.42;1.33;;;7.50;99.90;;;;;;4992911;28;20042;-54
2023/03/14 12:39:38;;;;;;;2.90;2.20;;;7.50;99.90;;;;;;4992488;28;20121;-51
2023/03/14 12:42:15;;;;;;;1.40;1.30;;;7.60;99.90;;;;;;4991326;28;20586;-53
2023/03/14 12:44:42;;;;;;;3.40;1.48;;;7.60;99.90;;;;;;4991828;28;20034;-51
2023/03/14 12:47:20;;;;;;;1.50;1.40;;;7.50;99.90;;;;;;4991700;28;20029;-55
2023/03/14 12:49:52;;;;;;;1.40;1.30;;;7.60;99.90;;;;;;4990597;28;20030;-53
2023/03/14 12:52:34;;;;;;;1.30;1.30;;;7.50;99.90;;;;;;4974187;28;20093;-53
2023/03/14 12:55:16;;;;;;;1.85;1.27;;;7.50;99.90;;;;;;4962459;28;20030;-48
2023/03/14 12:57:53;;;;;;;1.25;1.25;;;7.50;99.90;;;;;;4962018;28;20026;-54
2023/03/14 13:00:21;;;;;;;1.55;1.45;;;7.40;99.90;;;;;;4962239;28;20037;-50
2023/03/14 13:02:49;;;;;;;1.00;1.00;;;7.40;99.90;;;;;;4961032;28;20047;-57
2023/03/14 13:05:22;;;;;;;1.52;1.42;;;7.40;99.90;;;;;;4961862;28;20027;-53